Weather observations for the past three days for
Philip, Philip Airport
Imperial (Metric)
Date Time (mdt) Wind (mph) Vis. (mi.) Weather Sky Cond. Temperature (ºF) Relative Humidity Wind Chill (°F) Heat Index (°F) Pressure Precipitation (in)
Air Dwpt 6 hour altimeter (in) sea level (mb) 1 hr 3 hr 6 hr
Max. Min.
09 14:55 N 20 G 30 10.00 Fair CLR 66 27 23% 29.99 1014.7
09 13:55 N 20 G 28 10.00 Fair CLR 64 30 28% 29.99 1014.8
09 12:55 NE 8 G 22 10.00 Partly Cloudy SCT080 63 30.9 30% 29.99 1015.0
09 11:55 N 12 G 20 10.00 Mostly Cloudy BKN075 60.1 30.9 61 44.1 33% 29.98 1014.9
09 10:55 NE 9 10.00 Mostly Cloudy BKN080 57.9 39 50% 29.98 1014.9
09 09:55 N 12 10.00 Overcast FEW024 OVC075 55 41 59% 29.97 1014.4
09 08:55 N 13 G 18 10.00 Overcast SCT023 OVC080 53.1 42.1 66% 29.95 1013.8
09 07:55 NE 9 10.00 Partly Cloudy SCT090 53.1 41 64% 29.91 1012.3
09 06:55 N 7 10.00 Fair CLR 48 39.9 74% 45 29.87 1010.8
09 05:55 N 6 10.00 A Few Clouds FEW110 44.1 37 59 44.1 76% 41 29.83 1009.5
09 04:55 E 8 10.00 Partly Cloudy SCT100 48 37.9 68% 45 29.8 1008.1
09 03:55 E 10 10.00 Mostly Cloudy BKN120 51.1 37 59% 29.77 1007.0
09 02:55 NE 22 G 33 10.00 A Few Clouds and Breezy FEW110 55 34 45% 29.79 1007.5
09 01:55 W 10 G 18 10.00 Fair CLR 52 28.9 41% 29.73 1005.4
09 00:55 NW 8 10.00 Fair CLR 48.9 28.9 46% 46 29.73 1005.8
08 23:55 NW 7 10.00 Fair CLR 52 28.9 72 50 41% 29.74 1005.8
08 22:55 W 5 10.00 Fair CLR 52 30 43% 29.75 1006.3
08 21:55 W 3 10.00 Partly Cloudy SCT110 55 28.9 37% 29.77 1007.1
08 20:55 Calm 10.00 Fair CLR 55 28.9 37% 29.76 1006.9
08 19:55 NE 6 10.00 Fair CLR 59 30 33% 29.76 1007.0
08 18:55 N 8 10.00 Fair CLR 69.1 28 22% 29.76 1007.1
08 17:55 NW 13 G 21 10.00 Fair CLR 72 26.1 75 72 18% 29.77 1007.3
08 16:55 NW 17 G 26 10.00 Fair CLR 73 27 18% 29.78 1007.9
08 15:55 NW 22 G 28 10.00 Fair and Breezy CLR 73.9 28 18% 29.79 1008.2
08 14:55 N 23 G 35 10.00 Fair and Breezy CLR 73 28 19% 29.81 1008.5
08 13:55 NW 20 G 40 10.00 Fair CLR 73 28 19% 29.81 1008.7
08 12:55 NW 21 G 37 10.00 Fair and Breezy CLR 73 30.9 21% 29.81 1008.5
08 11:55 NW 20 G 39 10.00 Fair CLR 75 30.9 75 43 20% 76 29.81 1008.6
08 10:55 NW 26 G 38 10.00 Fair and Windy CLR 73 30.9 21% 29.81 1008.6
08 09:55 NW 18 G 32 10.00 Fair CLR 69.1 37 31% 29.82 1009.2
08 08:55 NW 23 10.00 Fair and Breezy CLR 66 39 37% 29.84 1009.7
08 07:55 W 17 10.00 Fair CLR 57.9 39.9 51% 29.84 1009.9
08 06:55 SW 9 10.00 A Few Clouds FEW085 46.9 36 66% 43 29.84 1010.0
08 05:55 SW 8 10.00 Fair CLR 44.1 35.1 46.9 39.9 71% 40 29.83 1009.6
08 04:55 W 10 10.00 Fair CLR 41 36 82% 35 29.82 1009.2
08 03:55 W 9 10.00 Fair CLR 42.1 36 79% 37 29.81 1008.9
08 02:55 W 7 10.00 Fair CLR 44.1 33.1 65% 41 29.8 1008.7
08 01:55 W 8 10.00 Fair CLR 45 28.9 54% 41 29.81 1008.7
08 00:55 NW 3 10.00 Fair CLR 45 28 52% 29.81 1009.1
07 23:55 Calm 10.00 Fair CLR 45 28 66 44.1 52% 29.82 1009.4
07 22:55 SW 3 10.00 Fair CLR 48.9 28 44% 29.82 1009.5
07 21:55 Calm 10.00 Mostly Cloudy BKN110 46.9 28 48% 29.83 1009.9
07 20:55 NE 6 10.00 Fair CLR 46.9 30 52% 45 29.82 1010.0
07 19:55 E 5 10.00 Fair CLR 55 32 42% 29.8 1009.1
07 18:55 NE 7 10.00 Fair CLR 62.1 28.9 29% 29.78 1008.8
07 17:55 Calm 10.00 Fair CLR 66 25 69.1 62.1 21% 29.78 1008.9
07 16:55 W 8 10.00 Fair CLR 68 25 20% 29.78 1008.8
07 15:55 W 8 G 18 10.00 Fair CLR 66.9 23 19% 29.8 1009.3
07 14:55 Vrbl 5 10.00 Mostly Cloudy BKN100 66 19.9 17% 29.81 1009.9
07 13:55 W 9 10.00 A Few Clouds FEW110 68 19 15% 29.82 1010.0
07 12:55 Vrbl 5 10.00 Partly Cloudy SCT100 64 18 17% 29.83 1010.3
07 11:55 N 6 10.00 Partly Cloudy SCT110 62.1 19.9 62.1 25 20% 29.85 1011.0
07 10:55 SW 6 10.00 Fair CLR 60.1 19.9 21% 29.86 1011.1
07 09:55 SE 5 10.00 Fair CLR 57 21.9 26% 29.87 1011.4
07 08:55 Calm 10.00 Fair CLR 51.1 23 33% 29.87 1011.5
07 07:55 Calm 10.00 Fair CLR 39.9 23 51% 29.86 1011.7
07 06:55 W 5 10.00 Fair CLR 30.9 21 67% 27 29.85 1011.6
07 05:55 W 6 10.00 Fair CLR 26.1 18 34 24.1 71% 20 29.83 1010.9
07 04:55 W 6 10.00 Fair CLR 25 18 75% 19 29.82 1010.4
07 03:55 W 6 10.00 Fair CLR 26.1 18 71% 20 29.81 1010.3
07 02:55 W 7 10.00 Fair CLR 27 19 72% 20 29.81 1010.2
07 01:55 NW 5 10.00 Fair CLR 28 19 69% 24 29.83 1010.7
07 00:55 W 3 10.00 Fair CLR 30.9 18 59% 29.83 1010.9
06 23:55 Calm 10.00 Fair CLR 34 19 57.9 34 54% 29.84 1011.1
06 22:55 E 5 10.00 Fair CLR 39 19 45% 36 29.85 1011.4
06 21:55 Calm 10.00 Fair CLR 42.1 18 38% 29.87 1012.0
06 20:55 S 3 10.00 Fair CLR 46 18 33% 29.89 1012.5
06 19:55 Calm 10.00 Fair CLR 52 18 26% 29.89 1012.5
06 18:55 SW 5 10.00 Fair CLR 53.1 18 25% 29.9 1013.2
06 17:55 W 6 10.00 Mostly Cloudy BKN095 55.9 16 60.1 51.1 21% 29.92 1014.2
06 16:55 NW 9 G 21 10.00 Partly Cloudy SCT095 57.9 16 19% 29.93 1014.6
Date Time (mdt) Wind (mph) Vis. (mi.) Weather Sky Cond. Air Dwpt Max. Min. Relative Humidity Wind Chill (°F) Heat Index (°F) altimeter (in) sea level (mb) 1 hr 3 hr 6 hr
6 hour
Temperature (ºF) Pressure Precipitation (in)